createdAt,value
2022-07-29T00:02:13.940Z,2.53
2022-07-29T00:04:40.414Z,1.90
2022-07-29T00:07:07.004Z,1.70
2022-07-29T00:09:33.780Z,1.80
2022-07-29T00:12:17.327Z,1.98
2022-07-29T00:14:52.377Z,1.92
2022-07-29T00:17:18.960Z,1.92
2022-07-29T00:19:45.720Z,1.70
2022-07-29T00:22:12.155Z,1.67
2022-07-29T00:24:38.514Z,2.08
2022-07-29T00:27:04.900Z,2.00
2022-07-29T00:29:33.962Z,2.03
2022-07-29T00:32:01.043Z,2.42
2022-07-29T00:34:27.420Z,2.13
2022-07-29T00:36:53.790Z,2.13
2022-07-29T00:39:20.176Z,2.17
2022-07-29T00:41:46.540Z,2.20
2022-07-29T00:44:13.169Z,1.98
2022-07-29T00:46:39.826Z,2.38
2022-07-29T00:49:06.197Z,2.47
2022-07-29T00:51:32.769Z,2.30
2022-07-29T00:54:00.810Z,2.10
2022-07-29T00:56:27.861Z,2.25
2022-07-29T00:58:56.980Z,2.85
2022-07-29T01:01:23.394Z,2.20
2022-07-29T01:03:49.818Z,2.63
2022-07-29T01:06:20.068Z,2.40
2022-07-29T01:08:47.711Z,2.25
2022-07-29T01:11:15.887Z,2.20
2022-07-29T01:13:44.097Z,2.45
2022-07-29T01:16:26.152Z,2.10
2022-07-29T01:19:01.453Z,2.72
2022-07-29T01:21:30.820Z,2.50
2022-07-29T01:24:24.549Z,2.40
2022-07-29T01:27:16.089Z,2.17
2022-07-29T01:29:55.167Z,2.08
2022-07-29T01:32:28.858Z,2.25
2022-07-29T01:35:02.253Z,2.40
2022-07-29T01:38:02.046Z,2.70
2022-07-29T01:40:35.272Z,2.03
2022-07-29T01:43:10.117Z,2.30
2022-07-29T01:45:47.865Z,2.35
2022-07-29T01:48:20.729Z,2.30
2022-07-29T01:51:01.218Z,2.50
2022-07-29T01:53:37.775Z,2.40
2022-07-29T01:56:05.887Z,2.47
2022-07-29T01:58:33.815Z,2.53
2022-07-29T02:01:02.198Z,2.25
2022-07-29T02:03:29.586Z,2.35
2022-07-29T02:05:58.312Z,2.40
2022-07-29T02:08:25.957Z,2.30
2022-07-29T02:10:53.617Z,2.35
2022-07-29T02:13:21.961Z,2.22
2022-07-29T02:15:50.942Z,2.47
2022-07-29T02:18:19.252Z,2.65
2022-07-29T02:20:49.097Z,2.60
2022-07-29T02:23:19.750Z,2.28
2022-07-29T02:25:50.001Z,2.53
2022-07-29T02:28:18.777Z,2.28
2022-07-29T02:30:47.489Z,2.40
2022-07-29T02:33:16.667Z,2.50
2022-07-29T02:35:45.648Z,2.45
2022-07-29T02:38:15.306Z,2.58
2022-07-29T02:40:43.805Z,2.33
2022-07-29T02:43:10.986Z,2.30
2022-07-29T02:45:37.649Z,2.60
2022-07-29T02:48:12.082Z,2.05
2022-07-29T02:50:45.123Z,2.38
2022-07-29T02:53:19.694Z,2.65
2022-07-29T02:56:09.152Z,2.42
2022-07-29T02:58:40.037Z,2.47
2022-07-29T03:01:21.905Z,2.33
2022-07-29T03:03:50.171Z,2.58
2022-07-29T03:06:37.767Z,2.70
2022-07-29T03:09:12.582Z,2.22
2022-07-29T03:11:49.915Z,2.47
2022-07-29T03:14:19.611Z,2.33
2022-07-29T03:16:47.171Z,2.70
2022-07-29T03:19:14.214Z,2.47
2022-07-29T03:21:40.609Z,2.42
2022-07-29T03:24:10.495Z,2.40
2022-07-29T03:26:37.774Z,2.33
2022-07-29T03:29:04.221Z,2.42
2022-07-29T03:31:30.677Z,2.63
2022-07-29T03:33:57.366Z,2.45
2022-07-29T03:36:23.722Z,2.42
2022-07-29T03:38:50.448Z,2.65
2022-07-29T03:41:17.834Z,2.67
2022-07-29T03:46:18.692Z,2.60
2022-07-29T03:48:49.553Z,2.60
2022-07-29T03:51:16.140Z,2.50
2022-07-29T03:53:42.789Z,2.35
2022-07-29T03:56:11.197Z,2.70
2022-07-29T03:58:39.732Z,2.47
2022-07-29T04:01:07.310Z,2.70
2022-07-29T04:03:35.358Z,2.83
2022-07-29T04:06:04.475Z,2.58
2022-07-29T04:08:30.829Z,2.60
2022-07-29T04:10:57.320Z,2.63
2022-07-29T04:13:23.692Z,2.80
2022-07-29T04:15:50.418Z,2.78
2022-07-29T04:18:16.814Z,2.72
2022-07-29T04:20:43.441Z,2.65
2022-07-29T04:23:09.997Z,3.10
2022-07-29T04:25:40.067Z,2.67
2022-07-29T04:28:07.588Z,2.75
2022-07-29T04:30:35.548Z,2.80
2022-07-29T04:33:03.902Z,2.83
2022-07-29T04:35:38.178Z,2.50
2022-07-29T04:38:06.666Z,2.70
2022-07-29T04:40:33.296Z,2.55
2022-07-29T04:43:03.336Z,2.60
2022-07-29T04:45:32.640Z,2.38
2022-07-29T04:47:59.053Z,2.80
2022-07-29T04:50:25.474Z,2.63
2022-07-29T04:52:51.838Z,2.75
2022-07-29T04:55:18.356Z,2.35
2022-07-29T04:57:44.767Z,2.67
2022-07-29T05:00:11.972Z,2.90
2022-07-29T05:02:39.484Z,3.35
2022-07-29T05:05:06.362Z,2.90
2022-07-29T05:07:33.450Z,2.70
2022-07-29T05:10:00.242Z,2.85
2022-07-29T05:12:26.943Z,4.28
2022-07-29T05:14:54.611Z,3.30
2022-07-29T05:17:21.046Z,3.22
2022-07-29T05:19:47.514Z,2.63
2022-07-29T05:22:13.902Z,2.90
2022-07-29T05:24:40.265Z,3.28
2022-07-29T05:27:06.798Z,3.33
2022-07-29T05:29:43.842Z,3.10
2022-07-29T05:32:12.727Z,3.30
2022-07-29T05:34:51.354Z,3.38
2022-07-29T05:37:19.827Z,3.35
2022-07-29T05:39:48.570Z,3.42
2022-07-29T05:42:15.745Z,3.60
2022-07-29T05:44:42.157Z,3.42
2022-07-29T05:47:08.823Z,3.63
2022-07-29T05:49:35.251Z,3.42
2022-07-29T05:52:01.665Z,3.63
2022-07-29T05:54:28.031Z,3.67
2022-07-29T05:56:54.377Z,3.88
2022-07-29T05:59:20.826Z,3.95
2022-07-29T06:01:47.341Z,3.30
2022-07-29T06:04:15.083Z,3.40
2022-07-29T06:06:41.673Z,3.58
2022-07-29T06:09:12.505Z,3.30
2022-07-29T06:11:39.674Z,3.80
2022-07-29T06:14:06.163Z,3.55
2022-07-29T06:16:32.628Z,3.40
2022-07-29T06:18:59.128Z,3.45
2022-07-29T06:21:25.495Z,3.20
2022-07-29T06:23:51.838Z,3.38
2022-07-29T06:26:18.174Z,3.58
2022-07-29T06:28:44.549Z,3.35
2022-07-29T06:31:10.984Z,3.33
2022-07-29T06:33:37.398Z,3.80
2022-07-29T06:36:06.828Z,3.35
2022-07-29T06:38:34.483Z,3.38
2022-07-29T06:41:09.459Z,3.28
2022-07-29T06:43:52.125Z,3.60
2022-07-29T06:46:22.226Z,3.40
2022-07-29T06:48:49.232Z,3.60
2022-07-29T06:51:16.328Z,3.58
2022-07-29T06:53:58.310Z,3.70
2022-07-29T06:56:27.820Z,3.63
2022-07-29T06:58:54.216Z,3.28
2022-07-29T07:01:20.592Z,3.30
2022-07-29T07:03:48.148Z,3.63
2022-07-29T07:06:15.160Z,3.60
2022-07-29T07:08:41.724Z,3.53
2022-07-29T07:11:08.105Z,3.58
2022-07-29T07:13:34.500Z,3.75
2022-07-29T07:16:04.015Z,3.40
2022-07-29T07:18:30.439Z,3.38
2022-07-29T07:20:57.538Z,3.22
2022-07-29T07:23:23.915Z,3.10
2022-07-29T07:25:50.544Z,3.10
2022-07-29T07:28:17.125Z,3.20
2022-07-29T07:30:43.705Z,3.45
2022-07-29T07:33:10.046Z,3.10
2022-07-29T07:35:36.453Z,3.30
2022-07-29T07:38:03.243Z,3.40
2022-07-29T07:40:29.655Z,3.33
2022-07-29T07:42:56.061Z,3.20
2022-07-29T07:45:22.806Z,3.13
2022-07-29T07:47:49.133Z,3.40
2022-07-29T07:50:18.857Z,3.13
2022-07-29T07:52:50.740Z,3.40
2022-07-29T07:55:17.580Z,3.35
2022-07-29T07:57:44.712Z,3.20
2022-07-29T08:00:12.056Z,3.38
2022-07-29T08:02:38.943Z,3.03
2022-07-29T08:05:06.133Z,3.00
2022-07-29T08:07:41.738Z,3.17
2022-07-29T08:10:08.488Z,3.40
2022-07-29T08:12:35.014Z,2.97
2022-07-29T08:15:01.896Z,2.97
2022-07-29T08:17:28.303Z,3.20
2022-07-29T08:19:54.862Z,3.10
2022-07-29T08:22:21.561Z,3.30
2022-07-29T08:24:47.923Z,2.97
2022-07-29T08:27:40.780Z,3.33
2022-07-29T08:30:01.137Z,3.08
2022-07-29T08:32:51.966Z,2.95
2022-07-29T08:35:13.867Z,2.95
2022-07-29T08:37:40.220Z,2.83
2022-07-29T08:40:06.922Z,3.08
2022-07-29T08:42:33.507Z,3.10
2022-07-29T08:44:59.872Z,3.00
2022-07-29T08:47:28.526Z,3.20
2022-07-29T08:49:54.893Z,3.20
2022-07-29T08:52:25.956Z,3.40
2022-07-29T08:54:53.570Z,3.10
2022-07-29T08:57:22.155Z,3.10
2022-07-29T08:59:53.317Z,3.15
2022-07-29T09:02:21.991Z,3.15
2022-07-29T09:04:49.063Z,3.63
2022-07-29T09:07:17.813Z,3.30
2022-07-29T09:09:44.393Z,3.20
2022-07-29T09:12:14.084Z,3.13
2022-07-29T09:14:56.010Z,3.20
2022-07-29T09:17:49.497Z,3.03
2022-07-29T09:20:21.291Z,3.05
2022-07-29T09:25:13.973Z,2.92
2022-07-29T09:27:40.376Z,3.03
2022-07-29T09:30:09.609Z,3.13
2022-07-29T09:32:55.013Z,3.38
2022-07-29T09:35:23.735Z,3.10
2022-07-29T09:37:50.377Z,3.63
2022-07-29T09:40:21.363Z,3.60
2022-07-29T09:42:48.050Z,3.28
2022-07-29T09:45:30.872Z,3.20
2022-07-29T09:47:57.937Z,3.20
2022-07-29T09:50:41.476Z,3.70
2022-07-29T09:53:08.284Z,3.60
2022-07-29T09:55:47.312Z,3.65
2022-07-29T09:58:22.205Z,3.53
2022-07-29T10:00:51.321Z,3.42
2022-07-29T10:03:18.363Z,3.20
2022-07-29T10:05:46.367Z,3.30
2022-07-29T10:08:13.635Z,3.30
2022-07-29T10:10:43.796Z,3.47
2022-07-29T10:13:15.698Z,3.30
2022-07-29T10:15:44.204Z,3.38
2022-07-29T10:18:13.265Z,3.58
2022-07-29T10:20:40.534Z,4.20
2022-07-29T10:23:07.166Z,3.55
2022-07-29T10:25:33.564Z,3.67
2022-07-29T10:28:00.010Z,3.53
2022-07-29T10:30:27.017Z,4.00
2022-07-29T10:33:27.464Z,3.80
2022-07-29T10:36:08.340Z,3.88
2022-07-29T10:39:07.323Z,3.60
2022-07-29T10:42:12.607Z,3.33
2022-07-29T10:44:42.631Z,3.30
2022-07-29T10:47:09.580Z,3.42
2022-07-29T10:49:36.536Z,3.42
2022-07-29T10:52:09.308Z,3.42
2022-07-29T10:54:35.580Z,3.60
2022-07-29T10:57:17.293Z,3.47
2022-07-29T10:59:53.093Z,3.47
2022-07-29T11:02:41.823Z,3.70
2022-07-29T11:05:18.081Z,3.00
2022-07-29T11:08:20.553Z,3.50
2022-07-29T11:11:07.725Z,2.83
2022-07-29T11:13:46.490Z,3.00
2022-07-29T11:16:16.000Z,3.33
2022-07-29T11:19:13.413Z,3.30
2022-07-29T11:21:54.899Z,2.95
2022-07-29T11:24:28.900Z,2.70
2022-07-29T11:27:18.084Z,2.90
2022-07-29T11:30:01.299Z,3.20
2022-07-29T11:32:37.586Z,3.10
2022-07-29T11:38:23.708Z,3.55
2022-07-29T11:41:18.119Z,3.10
2022-07-29T11:43:52.008Z,3.17
2022-07-29T11:46:50.746Z,2.85
2022-07-29T11:49:32.450Z,3.22
2022-07-29T11:52:00.344Z,3.30
2022-07-29T11:54:52.115Z,3.28
2022-07-29T11:57:21.873Z,3.13
2022-07-29T11:59:48.936Z,3.05
2022-07-29T12:02:36.514Z,3.00
2022-07-29T12:05:10.648Z,3.17
2022-07-29T12:07:39.243Z,3.08
2022-07-29T12:10:11.456Z,2.92
2022-07-29T12:12:52.801Z,2.78
2022-07-29T12:15:20.356Z,3.58
2022-07-29T12:17:48.630Z,3.30
2022-07-29T12:20:23.813Z,2.92
2022-07-29T12:22:51.721Z,3.58
2022-07-29T12:25:32.968Z,4.00
2022-07-29T12:28:10.092Z,3.85
2022-07-29T12:30:46.821Z,3.47
2022-07-29T12:33:14.178Z,3.33
2022-07-29T12:35:42.368Z,3.30
2022-07-29T12:38:11.426Z,3.25
2022-07-29T12:40:38.373Z,3.65
2022-07-29T12:43:19.886Z,3.15
2022-07-29T12:45:52.741Z,3.30
2022-07-29T12:48:36.172Z,3.28
2022-07-29T12:51:04.193Z,2.72
2022-07-29T12:53:30.655Z,2.85
2022-07-29T12:55:58.253Z,2.80
2022-07-29T12:58:42.683Z,2.65
2022-07-29T13:01:17.463Z,2.63
2022-07-29T13:03:57.627Z,2.60
2022-07-29T13:06:46.163Z,2.83
2022-07-29T13:09:21.041Z,3.13
2022-07-29T13:11:52.766Z,2.90
2022-07-29T13:14:36.843Z,2.60
2022-07-29T13:17:09.779Z,2.50
2022-07-29T13:19:47.321Z,2.40
2022-07-29T13:24:51.204Z,2.53
2022-07-29T13:27:19.083Z,2.30
2022-07-29T13:29:45.993Z,3.00
2022-07-29T13:32:12.848Z,2.53
2022-07-29T13:34:39.496Z,2.38
2022-07-29T13:37:06.070Z,2.63
2022-07-29T13:39:32.470Z,2.45
2022-07-29T13:41:59.332Z,2.60
2022-07-29T13:44:26.718Z,2.20
2022-07-29T13:46:53.057Z,2.85
2022-07-29T13:49:19.581Z,2.97
2022-07-29T13:51:46.121Z,2.33
2022-07-29T13:54:12.508Z,2.55
2022-07-29T13:56:38.858Z,2.45
2022-07-29T13:59:05.273Z,2.70
2022-07-29T14:01:31.757Z,2.50
2022-07-29T14:03:58.171Z,2.28
2022-07-29T14:06:24.549Z,2.65
2022-07-29T14:08:51.834Z,2.40
2022-07-29T14:11:18.244Z,2.88
2022-07-29T14:13:44.628Z,2.65
2022-07-29T14:16:11.087Z,2.53
2022-07-29T14:18:37.586Z,2.40
2022-07-29T14:21:04.090Z,2.90
2022-07-29T14:23:30.624Z,2.70
2022-07-29T14:25:56.988Z,2.70
2022-07-29T14:28:23.364Z,2.88
2022-07-29T14:30:49.727Z,2.53
2022-07-29T14:33:16.112Z,2.65
2022-07-29T14:35:42.494Z,2.10
2022-07-29T14:38:08.835Z,2.42
2022-07-29T14:40:35.323Z,2.58
2022-07-29T14:43:01.952Z,2.60
2022-07-29T14:45:28.407Z,2.30
2022-07-29T14:47:57.564Z,2.15
2022-07-29T14:50:31.396Z,2.95
2022-07-29T14:52:59.066Z,2.35
2022-07-29T14:55:25.529Z,2.30
2022-07-29T14:57:51.924Z,2.10
2022-07-29T15:00:19.050Z,1.95
2022-07-29T15:03:01.414Z,2.00
2022-07-29T15:05:28.937Z,2.05
2022-07-29T15:07:55.325Z,2.00
2022-07-29T15:10:21.707Z,2.00
2022-07-29T15:12:51.448Z,2.00
2022-07-29T15:15:17.853Z,2.22
2022-07-29T15:17:44.229Z,2.63
2022-07-29T15:20:10.931Z,1.80
2022-07-29T15:22:37.295Z,1.80
2022-07-29T15:25:04.027Z,2.13
2022-07-29T15:27:30.356Z,2.10
2022-07-29T15:29:56.703Z,1.95
2022-07-29T15:32:23.093Z,1.90
2022-07-29T15:34:49.511Z,2.05
2022-07-29T15:37:15.937Z,2.00
2022-07-29T15:39:42.339Z,1.80
2022-07-29T15:42:08.702Z,2.00
2022-07-29T15:44:35.127Z,1.98
2022-07-29T15:47:02.039Z,2.00
2022-07-29T15:49:28.933Z,1.88
2022-07-29T15:52:13.429Z,1.92
2022-07-29T15:54:40.606Z,1.50
2022-07-29T15:57:07.520Z,1.95
2022-07-29T15:59:33.939Z,2.17
2022-07-29T16:02:00.909Z,1.80
2022-07-29T16:04:28.076Z,1.92
2022-07-29T16:06:54.545Z,1.92
2022-07-29T16:09:20.910Z,2.00
2022-07-29T16:11:47.859Z,2.10
2022-07-29T16:14:14.543Z,1.90
2022-07-29T16:16:41.090Z,1.70
2022-07-29T16:19:08.760Z,1.85
2022-07-29T16:21:35.745Z,2.05
2022-07-29T16:24:02.657Z,2.30
2022-07-29T16:26:29.116Z,1.90
2022-07-29T16:28:56.043Z,2.05
2022-07-29T16:31:23.163Z,2.10
2022-07-29T16:33:54.242Z,1.88
2022-07-29T16:36:22.027Z,2.10
2022-07-29T16:38:48.463Z,1.92
2022-07-29T16:41:15.178Z,2.25
2022-07-29T16:43:41.553Z,2.40
2022-07-29T16:46:08.937Z,2.10
2022-07-29T16:48:39.648Z,2.17
2022-07-29T16:51:07.624Z,2.20
2022-07-29T16:53:34.278Z,2.05
2022-07-29T16:56:01.144Z,2.15
2022-07-29T16:58:27.554Z,2.13
2022-07-29T17:00:53.997Z,2.10
2022-07-29T17:03:20.449Z,2.22
2022-07-29T17:05:50.351Z,2.10
2022-07-29T17:08:19.133Z,1.95
2022-07-29T17:10:45.737Z,2.05
2022-07-29T17:13:12.416Z,2.03
2022-07-29T17:15:38.839Z,2.13
2022-07-29T17:18:12.210Z,1.95
2022-07-29T17:20:41.014Z,2.10
2022-07-29T17:23:07.385Z,2.00
2022-07-29T17:25:33.807Z,2.30
2022-07-29T17:28:01.136Z,2.50
2022-07-29T17:30:27.917Z,2.30
2022-07-29T17:32:54.309Z,2.28
2022-07-29T17:35:20.797Z,2.20
2022-07-29T17:37:47.177Z,2.55
2022-07-29T17:40:13.521Z,2.53
2022-07-29T17:42:39.888Z,2.33
2022-07-29T17:45:06.968Z,2.42
2022-07-29T17:47:33.289Z,2.50
2022-07-29T17:49:59.626Z,2.50
2022-07-29T17:52:25.986Z,2.47
2022-07-29T17:54:52.332Z,2.70
2022-07-29T17:57:18.639Z,2.50
2022-07-29T17:59:44.976Z,2.60
2022-07-29T18:02:11.339Z,2.78
2022-07-29T18:04:37.791Z,2.55
2022-07-29T18:07:04.141Z,2.60
2022-07-29T18:09:30.717Z,2.90
2022-07-29T18:11:57.103Z,2.92
2022-07-29T18:14:23.492Z,2.95
2022-07-29T18:16:49.999Z,3.08
2022-07-29T18:19:16.451Z,3.78
2022-07-29T18:21:51.936Z,3.20
2022-07-29T18:24:23.285Z,3.55
2022-07-29T18:26:49.647Z,2.85
2022-07-29T18:29:16.006Z,2.97
2022-07-29T18:31:42.409Z,2.40
2022-07-29T18:34:08.889Z,2.65
2022-07-29T18:36:35.283Z,2.40
2022-07-29T18:39:01.623Z,2.70
2022-07-29T18:41:28.025Z,2.53
2022-07-29T18:43:54.419Z,2.25
2022-07-29T18:46:21.256Z,2.20
2022-07-29T18:48:47.846Z,2.33
2022-07-29T18:51:14.260Z,2.30
2022-07-29T18:53:40.609Z,2.15
2022-07-29T18:56:07.040Z,2.38
2022-07-29T18:58:33.593Z,2.10
2022-07-29T19:00:59.918Z,2.30
2022-07-29T19:03:26.288Z,1.95
2022-07-29T19:05:52.715Z,2.17
2022-07-29T19:08:19.025Z,2.22
2022-07-29T19:10:45.369Z,2.20
2022-07-29T19:13:13.453Z,2.30
2022-07-29T19:15:40.061Z,2.17
2022-07-29T19:18:06.454Z,2.30
2022-07-29T19:20:32.832Z,2.10
2022-07-29T19:22:59.173Z,2.05
2022-07-29T19:25:25.922Z,2.40
2022-07-29T19:27:52.292Z,2.10
2022-07-29T19:30:18.665Z,2.30
2022-07-29T19:32:45.042Z,2.20
2022-07-29T19:35:11.681Z,2.50
2022-07-29T19:37:38.022Z,2.42
2022-07-29T19:40:06.133Z,2.38
2022-07-29T19:42:32.494Z,2.20
2022-07-29T19:44:58.842Z,2.42
2022-07-29T19:47:25.315Z,2.60
2022-07-29T19:49:51.641Z,2.85
2022-07-29T19:52:18.061Z,3.03
2022-07-29T19:54:44.388Z,3.53
2022-07-29T19:57:10.759Z,3.60
2022-07-29T19:59:37.105Z,4.45
2022-07-29T20:02:03.647Z,4.30
2022-07-29T20:04:30.458Z,4.03
2022-07-29T20:06:57.271Z,3.72
2022-07-29T20:09:23.849Z,4.32
2022-07-29T20:11:50.191Z,3.70
2022-07-29T20:14:16.565Z,3.88
2022-07-29T20:16:42.950Z,4.32
2022-07-29T20:19:09.291Z,3.95
2022-07-29T20:21:35.638Z,4.13
2022-07-29T20:24:03.720Z,3.65
2022-07-29T20:26:30.848Z,4.25
2022-07-29T20:28:57.204Z,4.13
2022-07-29T20:31:23.671Z,3.92
2022-07-29T20:33:50.536Z,4.55
2022-07-29T20:36:16.907Z,3.85
2022-07-29T20:38:43.446Z,4.25
2022-07-29T20:41:09.813Z,4.53
2022-07-29T20:43:38.974Z,4.47
2022-07-29T20:46:05.890Z,4.25
2022-07-29T20:48:32.453Z,4.60
2022-07-29T20:50:58.795Z,4.68
2022-07-29T20:53:25.156Z,4.45
2022-07-29T20:55:51.505Z,4.65
2022-07-29T20:58:17.840Z,4.60
2022-07-29T21:00:44.251Z,4.93
2022-07-29T21:03:10.649Z,4.80
2022-07-29T21:05:37.669Z,4.43
2022-07-29T21:08:04.216Z,5.25
2022-07-29T21:10:30.582Z,5.18
2022-07-29T21:12:56.915Z,5.28
2022-07-29T21:15:23.275Z,5.72
2022-07-29T21:17:49.685Z,5.28
2022-07-29T21:20:18.093Z,5.90
2022-07-29T21:22:44.804Z,5.80
2022-07-29T21:25:11.504Z,5.85
2022-07-29T21:27:38.512Z,5.47
2022-07-29T21:30:07.078Z,4.80
2022-07-29T21:32:33.542Z,5.20
2022-07-29T21:34:59.926Z,5.53
2022-07-29T21:37:26.325Z,5.70
2022-07-29T21:39:52.637Z,5.55
2022-07-29T21:42:18.980Z,5.85
2022-07-29T21:44:45.343Z,5.60
2022-07-29T21:47:11.759Z,5.72
2022-07-29T21:49:38.097Z,5.80
2022-07-29T21:52:05.258Z,6.50
2022-07-29T21:54:31.666Z,5.95
2022-07-29T21:56:58.307Z,6.53
2022-07-29T21:59:24.915Z,6.43
2022-07-29T22:01:51.392Z,6.43
2022-07-29T22:04:17.846Z,6.50
2022-07-29T22:06:44.472Z,6.70
2022-07-29T22:09:10.856Z,6.20
2022-07-29T22:11:37.192Z,5.82
2022-07-29T22:14:04.744Z,5.95
2022-07-29T22:16:31.121Z,7.28
2022-07-29T22:18:57.498Z,5.53
2022-07-29T22:21:23.853Z,5.95
2022-07-29T22:23:50.494Z,6.57
2022-07-29T22:26:17.122Z,6.50
2022-07-29T22:28:43.711Z,6.15
2022-07-29T22:31:10.127Z,6.60
2022-07-29T22:33:36.536Z,6.47
2022-07-29T22:36:03.030Z,6.82
2022-07-29T22:38:29.391Z,6.40
2022-07-29T22:40:58.748Z,6.13
2022-07-29T22:43:27.799Z,6.95
2022-07-29T22:45:54.222Z,5.72
2022-07-29T22:48:20.644Z,5.63
2022-07-29T22:50:46.992Z,5.53
2022-07-29T22:53:13.378Z,5.25
2022-07-29T22:55:39.778Z,5.53
2022-07-29T22:58:06.388Z,5.25
2022-07-29T23:00:32.827Z,5.63
2022-07-29T23:02:59.165Z,6.32
2022-07-29T23:05:25.514Z,6.60
2022-07-29T23:07:51.864Z,7.90
2022-07-29T23:10:18.246Z,8.23
2022-07-29T23:12:44.582Z,8.02
2022-07-29T23:15:11.032Z,5.95
2022-07-29T23:17:37.357Z,5.45
2022-07-29T23:20:08.172Z,5.47
2022-07-29T23:22:36.210Z,5.35
2022-07-29T23:25:02.724Z,4.65
2022-07-29T23:27:29.205Z,5.45
2022-07-29T23:29:55.566Z,5.50
2022-07-29T23:32:21.905Z,5.30
2022-07-29T23:34:48.228Z,4.85
2022-07-29T23:37:14.563Z,4.38
2022-07-29T23:39:40.949Z,5.13
2022-07-29T23:42:07.297Z,5.65
2022-07-29T23:44:33.674Z,5.78
2022-07-29T23:47:00.328Z,6.15
2022-07-29T23:49:26.940Z,6.70
2022-07-29T23:51:53.304Z,8.15
2022-07-29T23:54:19.660Z,8.18
2022-07-29T23:56:46.452Z,8.27
2022-07-29T23:59:12.933Z,8.35
